sensor_id;sensor_type;location;lat;lon;timestamp;pressure;altitude;pressure_sealevel;temperature;humidity
15260;BME280;34462;51.368;12.364;2023-03-31T00:01:08;19700.03;;;-141.84;74.39
15260;BME280;34462;51.368;12.364;2023-03-31T00:03:37;19714.25;;;-141.84;74.14
15260;BME280;34462;51.368;12.364;2023-03-31T00:06:13;19718.31;;;-141.84;75.20
15260;BME280;34462;51.368;12.364;2023-03-31T00:08:45;19687.84;;;-141.84;75.58
15260;BME280;34462;51.368;12.364;2023-03-31T00:11:18;19683.78;;;-141.84;75.63
15260;BME280;34462;51.368;12.364;2023-03-31T00:13:47;19698.00;;;-141.84;75.80
15260;BME280;34462;51.368;12.364;2023-03-31T00:16:15;19724.41;;;-141.84;74.90
15260;BME280;34462;51.368;12.364;2023-03-31T00:18:44;19700.03;;;-141.84;75.26
15260;BME280;34462;51.368;12.364;2023-03-31T00:21:18;19718.31;;;-141.84;75.06
15260;BME280;34462;51.368;12.364;2023-03-31T00:23:58;19720.34;;;-141.84;75.63
15260;BME280;34462;51.368;12.364;2023-03-31T00:26:26;19695.97;;;-141.84;75.57
15260;BME280;34462;51.368;12.364;2023-03-31T00:28:56;19685.81;;;-141.84;75.34
15260;BME280;34462;51.368;12.364;2023-03-31T00:31:25;19675.63;;;-141.84;76.14
15260;BME280;34462;51.368;12.364;2023-03-31T00:33:54;19708.16;;;-141.84;75.05
15260;BME280;34462;51.368;12.364;2023-03-31T00:36:25;19718.31;;;-141.84;75.88
15260;BME280;34462;51.368;12.364;2023-03-31T00:38:55;19661.41;;;-141.84;76.12
15260;BME280;34462;51.368;12.364;2023-03-31T00:41:26;19637.03;;;-141.84;76.65
15260;BME280;34462;51.368;12.364;2023-03-31T00:44:10;19630.94;;;-141.84;76.59
15260;BME280;34462;51.368;12.364;2023-03-31T00:46:44;19643.13;;;-141.84;77.02
15260;BME280;34462;51.368;12.364;2023-03-31T00:49:22;19618.75;;;-141.84;77.36
15260;BME280;34462;51.368;12.364;2023-03-31T00:51:56;19622.81;;;-141.84;78.04
15260;BME280;34462;51.368;12.364;2023-03-31T00:54:29;19628.91;;;-141.84;78.12
15260;BME280;34462;51.368;12.364;2023-03-31T00:57:00;19620.78;;;-141.84;77.86
15260;BME280;34462;51.368;12.364;2023-03-31T00:59:37;19630.94;;;-141.84;77.67
15260;BME280;34462;51.368;12.364;2023-03-31T01:02:08;19651.25;;;-141.84;78.04
15260;BME280;34462;51.368;12.364;2023-03-31T01:04:44;19665.47;;;-141.84;76.63
15260;BME280;34462;51.368;12.364;2023-03-31T01:07:21;19683.78;;;-141.84;77.09
15260;BME280;34462;51.368;12.364;2023-03-31T01:09:56;19632.97;;;-141.84;77.80
15260;BME280;34462;51.368;12.364;2023-03-31T01:12:27;19643.13;;;-141.84;78.41
15260;BME280;34462;51.368;12.364;2023-03-31T01:14:55;19576.06;;;-141.84;78.08
15260;BME280;34462;51.368;12.364;2023-03-31T01:17:23;19606.53;;;-141.84;78.78
15260;BME280;34462;51.368;12.364;2023-03-31T01:20:07;19614.66;;;-141.84;78.62
15260;BME280;34462;51.368;12.364;2023-03-31T01:23:33;19588.25;;;-141.84;78.84
15260;BME280;34462;51.368;12.364;2023-03-31T01:29:58;19557.78;;;-141.84;79.61
15260;BME280;34462;51.368;12.364;2023-03-31T01:33:17;19588.25;;;-141.84;80.37
15260;BME280;34462;51.368;12.364;2023-03-31T01:40:01;19569.97;;;-141.84;79.72
15260;BME280;34462;51.368;12.364;2023-03-31T01:42:36;19592.31;;;-141.84;80.10
15260;BME280;34462;51.368;12.364;2023-03-31T01:45:23;19555.75;;;-141.84;80.83
15260;BME280;34462;51.368;12.364;2023-03-31T01:47:58;19551.69;;;-141.84;81.28
15260;BME280;34462;51.368;12.364;2023-03-31T01:50:34;19569.97;;;-141.84;80.62
15260;BME280;34462;51.368;12.364;2023-03-31T01:53:11;19537.44;;;-141.84;80.66
15260;BME280;34462;51.368;12.364;2023-03-31T01:55:50;19531.34;;;-141.84;81.87
15260;BME280;34462;51.368;12.364;2023-03-31T01:58:25;19500.88;;;-141.84;81.78
15260;BME280;34462;51.368;12.364;2023-03-31T02:01:03;19537.44;;;-141.84;82.54
15260;BME280;34462;51.368;12.364;2023-03-31T02:03:38;19545.56;;;-141.84;81.93
15260;BME280;34462;51.368;12.364;2023-03-31T02:06:13;19494.78;;;-141.84;82.12
15260;BME280;34462;51.368;12.364;2023-03-31T02:08:48;19537.44;;;-141.84;82.63
15260;BME280;34462;51.368;12.364;2023-03-31T02:11:21;19533.38;;;-141.84;82.01
15260;BME280;34462;51.368;12.364;2023-03-31T02:13:53;19561.84;;;-141.84;81.24
15260;BME280;34462;51.368;12.364;2023-03-31T02:16:27;19557.78;;;-141.84;81.33
15260;BME280;34462;51.368;12.364;2023-03-31T02:19:03;19553.72;;;-141.84;80.75
15260;BME280;34462;51.368;12.364;2023-03-31T02:21:35;19567.94;;;-141.84;80.07
15260;BME280;34462;51.368;12.364;2023-03-31T02:24:10;19574.03;;;-141.84;80.48
15260;BME280;34462;51.368;12.364;2023-03-31T02:26:47;19555.75;;;-141.84;81.06
15260;BME280;34462;51.368;12.364;2023-03-31T02:29:19;19590.28;;;-141.84;80.60
15260;BME280;34462;51.368;12.364;2023-03-31T02:31:55;19596.38;;;-141.84;79.93
15260;BME280;34462;51.368;12.364;2023-03-31T02:34:25;19612.63;;;-141.84;78.29
15260;BME280;34462;51.368;12.364;2023-03-31T02:36:53;19616.72;;;-141.84;77.97
15260;BME280;34462;51.368;12.364;2023-03-31T02:39:25;19614.66;;;-141.84;77.97
15260;BME280;34462;51.368;12.364;2023-03-31T02:41:56;19632.97;;;-141.84;76.77
15260;BME280;34462;51.368;12.364;2023-03-31T02:44:25;19649.22;;;-141.84;77.73
15260;BME280;34462;51.368;12.364;2023-03-31T02:46:53;19653.28;;;-141.84;77.02
15260;BME280;34462;51.368;12.364;2023-03-31T02:49:22;19649.22;;;-141.84;77.16
15260;BME280;34462;51.368;12.364;2023-03-31T02:52:22;19635.00;;;-141.84;77.01
15260;BME280;34462;51.368;12.364;2023-03-31T02:55:18;19630.94;;;-141.84;77.65
15260;BME280;34462;51.368;12.364;2023-03-31T02:58:14;19655.31;;;-141.84;77.08
15260;BME280;34462;51.368;12.364;2023-03-31T03:01:05;19608.56;;;-141.84;76.86
15260;BME280;34462;51.368;12.364;2023-03-31T03:03:45;19635.00;;;-141.84;77.44
15260;BME280;34462;51.368;12.364;2023-03-31T03:06:35;19643.13;;;-141.84;76.97
15260;BME280;34462;51.368;12.364;2023-03-31T03:09:26;19651.25;;;-141.84;77.04
15260;BME280;34462;51.368;12.364;2023-03-31T03:12:09;19641.09;;;-141.84;77.00
15260;BME280;34462;51.368;12.364;2023-03-31T03:14:45;19630.94;;;-141.84;76.63
15260;BME280;34462;51.368;12.364;2023-03-31T03:17:21;19647.19;;;-141.84;75.72
15260;BME280;34462;51.368;12.364;2023-03-31T03:19:54;19714.25;;;-141.84;74.76
15260;BME280;34462;51.368;12.364;2023-03-31T03:22:23;19643.13;;;-141.84;76.21
15260;BME280;34462;51.368;12.364;2023-03-31T03:24:52;19647.19;;;-141.84;77.25
15260;BME280;34462;51.368;12.364;2023-03-31T03:27:20;19618.75;;;-141.84;77.82
15260;BME280;34462;51.368;12.364;2023-03-31T03:29:51;19606.53;;;-141.84;77.72
15260;BME280;34462;51.368;12.364;2023-03-31T03:32:19;19614.66;;;-141.84;78.22
15260;BME280;34462;51.368;12.364;2023-03-31T03:34:47;19637.03;;;-141.84;77.06
15260;BME280;34462;51.368;12.364;2023-03-31T03:37:15;19592.31;;;-141.84;78.31
15260;BME280;34462;51.368;12.364;2023-03-31T03:39:43;19612.63;;;-141.84;78.25
15260;BME280;34462;51.368;12.364;2023-03-31T03:42:12;19590.28;;;-141.84;77.56
15260;BME280;34462;51.368;12.364;2023-03-31T03:44:40;19582.16;;;-141.84;78.32
15260;BME280;34462;51.368;12.364;2023-03-31T03:47:09;19561.84;;;-141.84;78.92
15260;BME280;34462;51.368;12.364;2023-03-31T03:49:37;19578.09;;;-141.84;79.29
15260;BME280;34462;51.368;12.364;2023-03-31T03:52:06;19565.91;;;-141.84;79.58
15260;BME280;34462;51.368;12.364;2023-03-31T03:54:35;19567.94;;;-141.84;79.58
15260;BME280;34462;51.368;12.364;2023-03-31T03:57:03;19610.59;;;-141.84;78.57
15260;BME280;34462;51.368;12.364;2023-03-31T03:59:32;19582.16;;;-141.84;79.10
15260;BME280;34462;51.368;12.364;2023-03-31T04:02:00;19586.22;;;-141.84;78.56
15260;BME280;34462;51.368;12.364;2023-03-31T04:04:30;19561.84;;;-141.84;79.01
15260;BME280;34462;51.368;12.364;2023-03-31T04:06:58;19567.94;;;-141.84;79.34
15260;BME280;34462;51.368;12.364;2023-03-31T04:09:26;19567.94;;;-141.84;79.05
15260;BME280;34462;51.368;12.364;2023-03-31T04:11:55;19582.16;;;-141.84;79.05
15260;BME280;34462;51.368;12.364;2023-03-31T04:14:23;19602.47;;;-141.84;78.66
15260;BME280;34462;51.368;12.364;2023-03-31T04:16:51;19594.34;;;-141.84;78.27
15260;BME280;34462;51.368;12.364;2023-03-31T04:19:22;19616.72;;;-141.84;78.95
15260;BME280;34462;51.368;12.364;2023-03-31T04:21:53;19618.75;;;-141.84;77.81
15260;BME280;34462;51.368;12.364;2023-03-31T04:24:28;19665.47;;;-141.84;76.77
15260;BME280;34462;51.368;12.364;2023-03-31T04:27:00;19624.84;;;-141.84;76.79
15260;BME280;34462;51.368;12.364;2023-03-31T04:29:28;19616.72;;;-141.84;77.42
15260;BME280;34462;51.368;12.364;2023-03-31T04:32:00;19643.13;;;-141.84;76.63
15260;BME280;34462;51.368;12.364;2023-03-31T04:34:28;19651.25;;;-141.84;75.69
15260;BME280;34462;51.368;12.364;2023-03-31T04:37:03;19669.53;;;-141.84;75.21
15260;BME280;34462;51.368;12.364;2023-03-31T04:39:31;19647.19;;;-141.84;75.35
15260;BME280;34462;51.368;12.364;2023-03-31T04:42:00;19683.78;;;-141.84;75.92
15260;BME280;34462;51.368;12.364;2023-03-31T04:44:29;19681.75;;;-141.84;74.32
15260;BME280;34462;51.368;12.364;2023-03-31T04:46:57;19685.81;;;-141.84;74.73
15260;BME280;34462;51.368;12.364;2023-03-31T04:49:28;19708.16;;;-141.84;74.20
15260;BME280;34462;51.368;12.364;2023-03-31T04:51:59;19665.47;;;-141.84;75.29
15260;BME280;34462;51.368;12.364;2023-03-31T04:54:28;19649.22;;;-141.84;75.80
15260;BME280;34462;51.368;12.364;2023-03-31T04:56:56;19643.13;;;-141.84;75.89
15260;BME280;34462;51.368;12.364;2023-03-31T04:59:25;19612.63;;;-141.84;76.06
15260;BME280;34462;51.368;12.364;2023-03-31T05:01:53;19665.47;;;-141.84;76.14
15260;BME280;34462;51.368;12.364;2023-03-31T05:04:21;19657.34;;;-141.84;75.91
15260;BME280;34462;51.368;12.364;2023-03-31T05:06:50;19622.81;;;-141.84;76.72
15260;BME280;34462;51.368;12.364;2023-03-31T05:09:18;19626.88;;;-141.84;76.54
15260;BME280;34462;51.368;12.364;2023-03-31T05:11:49;19620.78;;;-141.84;76.90
15260;BME280;34462;51.368;12.364;2023-03-31T05:14:17;19663.44;;;-141.84;76.26
15260;BME280;34462;51.368;12.364;2023-03-31T05:16:46;19643.13;;;-141.84;75.68
15260;BME280;34462;51.368;12.364;2023-03-31T05:19:15;19691.91;;;-141.84;75.30
15260;BME280;34462;51.368;12.364;2023-03-31T05:21:44;19643.13;;;-141.84;75.52
15260;BME280;34462;51.368;12.364;2023-03-31T05:24:13;19702.06;;;-141.84;74.49
15260;BME280;34462;51.368;12.364;2023-03-31T05:26:41;19704.09;;;-141.84;74.57
15260;BME280;34462;51.368;12.364;2023-03-31T05:29:15;19681.75;;;-141.84;74.42
15260;BME280;34462;51.368;12.364;2023-03-31T05:31:43;19663.44;;;-141.84;75.76
15260;BME280;34462;51.368;12.364;2023-03-31T05:34:12;19655.31;;;-141.84;75.33
15260;BME280;34462;51.368;12.364;2023-03-31T05:36:41;19655.31;;;-141.84;75.72
15260;BME280;34462;51.368;12.364;2023-03-31T05:39:09;19651.25;;;-141.84;76.17
15260;BME280;34462;51.368;12.364;2023-03-31T05:41:37;19687.84;;;-141.84;75.68
15260;BME280;34462;51.368;12.364;2023-03-31T05:44:05;19637.03;;;-141.84;76.18
15260;BME280;34462;51.368;12.364;2023-03-31T05:46:35;19683.78;;;-141.84;76.51
15260;BME280;34462;51.368;12.364;2023-03-31T05:49:03;19693.94;;;-141.84;75.72
15260;BME280;34462;51.368;12.364;2023-03-31T05:51:32;19734.56;;;-141.84;75.84
15260;BME280;34462;51.368;12.364;2023-03-31T05:54:00;19698.00;;;-141.84;74.87
15260;BME280;34462;51.368;12.364;2023-03-31T05:56:28;19736.59;;;-141.84;74.71
15260;BME280;34462;51.368;12.364;2023-03-31T05:58:58;19763.03;;;-141.84;74.38
15260;BME280;34462;51.368;12.364;2023-03-31T06:01:27;19775.22;;;-141.84;73.30
15260;BME280;34462;51.368;12.364;2023-03-31T06:03:57;19801.66;;;-141.84;73.15
15260;BME280;34462;51.368;12.364;2023-03-31T06:06:25;19817.91;;;-141.84;72.81
15260;BME280;34462;51.368;12.364;2023-03-31T06:08:54;19797.59;;;-141.84;72.80
15260;BME280;34462;51.368;12.364;2023-03-31T06:11:22;19789.44;;;-141.84;73.17
15260;BME280;34462;51.368;12.364;2023-03-31T06:13:50;19811.81;;;-141.84;73.09
15260;BME280;34462;51.368;12.364;2023-03-31T06:16:19;19828.06;;;-141.84;72.94
15260;BME280;34462;51.368;12.364;2023-03-31T06:18:50;19834.16;;;-141.84;72.37
15260;BME280;34462;51.368;12.364;2023-03-31T06:21:20;19821.97;;;-141.84;72.69
15260;BME280;34462;51.368;12.364;2023-03-31T06:23:49;19821.97;;;-141.84;72.55
15260;BME280;34462;51.368;12.364;2023-03-31T06:26:21;19797.59;;;-141.84;72.66
15260;BME280;34462;51.368;12.364;2023-03-31T06:28:49;19799.63;;;-141.84;72.85
15260;BME280;34462;51.368;12.364;2023-03-31T06:31:20;19787.41;;;-141.84;72.90
15260;BME280;34462;51.368;12.364;2023-03-31T06:33:50;19789.44;;;-141.84;72.99
15260;BME280;34462;51.368;12.364;2023-03-31T06:36:20;19797.59;;;-141.84;73.04
15260;BME280;34462;51.368;12.364;2023-03-31T06:38:50;19777.25;;;-141.84;73.12
15260;BME280;34462;51.368;12.364;2023-03-31T06:41:19;19769.13;;;-141.84;73.45
15260;BME280;34462;51.368;12.364;2023-03-31T06:43:48;19756.94;;;-141.84;74.29
15260;BME280;34462;51.368;12.364;2023-03-31T06:46:17;19779.28;;;-141.84;74.43
15260;BME280;34462;51.368;12.364;2023-03-31T06:48:45;19761.00;;;-141.84;75.42
15260;BME280;34462;51.368;12.364;2023-03-31T06:51:13;19793.50;;;-141.84;74.75
15260;BME280;34462;51.368;12.364;2023-03-31T06:53:43;19763.03;;;-141.84;73.97
15260;BME280;34462;51.368;12.364;2023-03-31T06:56:11;19817.91;;;-141.84;73.99
15260;BME280;34462;51.368;12.364;2023-03-31T06:58:40;19805.72;;;-141.84;74.06
15260;BME280;34462;51.368;12.364;2023-03-31T07:01:08;19801.66;;;-141.84;73.95
15260;BME280;34462;51.368;12.364;2023-03-31T07:03:37;19838.22;;;-141.84;73.36
15260;BME280;34462;51.368;12.364;2023-03-31T07:06:06;19840.25;;;-141.84;73.17
15260;BME280;34462;51.368;12.364;2023-03-31T07:08:35;19846.34;;;-141.84;73.02
15260;BME280;34462;51.368;12.364;2023-03-31T07:11:04;19838.22;;;-141.84;71.98
15260;BME280;34462;51.368;12.364;2023-03-31T07:13:33;19856.53;;;-141.84;71.43
15260;BME280;34462;51.368;12.364;2023-03-31T07:16:01;19864.66;;;-141.84;70.92
15260;BME280;34462;51.368;12.364;2023-03-31T07:18:31;19874.81;;;-141.84;71.36
15260;BME280;34462;51.368;12.364;2023-03-31T07:21:02;19939.84;;;-141.84;69.76
15260;BME280;34462;51.368;12.364;2023-03-31T07:23:35;19911.41;;;-141.84;70.19
15260;BME280;34462;51.368;12.364;2023-03-31T07:26:05;19878.88;;;-141.84;69.78
15260;BME280;34462;51.368;12.364;2023-03-31T07:28:33;19905.28;;;-141.84;69.94
15260;BME280;34462;51.368;12.364;2023-03-31T07:31:02;19878.88;;;-141.84;69.93
15260;BME280;34462;51.368;12.364;2023-03-31T07:33:30;19897.16;;;-141.84;70.50
15260;BME280;34462;51.368;12.364;2023-03-31T07:36:03;19889.03;;;-141.84;70.05
15260;BME280;34462;51.368;12.364;2023-03-31T07:38:40;19887.00;;;-141.84;70.78
15260;BME280;34462;51.368;12.364;2023-03-31T07:41:12;19927.66;;;-141.84;70.48
15260;BME280;34462;51.368;12.364;2023-03-31T07:43:40;19952.03;;;-141.84;68.86
15260;BME280;34462;51.368;12.364;2023-03-31T07:46:15;19943.91;;;-141.84;68.99
15260;BME280;34462;51.368;12.364;2023-03-31T07:48:45;19974.41;;;-141.84;68.71
15260;BME280;34462;51.368;12.364;2023-03-31T07:51:15;20019.13;;;-141.84;67.69
15260;BME280;34462;51.368;12.364;2023-03-31T07:53:44;20010.97;;;-141.84;67.08
15260;BME280;34462;51.368;12.364;2023-03-31T07:56:14;20021.16;;;-141.84;67.37
15260;BME280;34462;51.368;12.364;2023-03-31T07:58:45;19996.75;;;-141.84;66.92
15260;BME280;34462;51.368;12.364;2023-03-31T08:01:15;20013.00;;;-141.84;67.42
15260;BME280;34462;51.368;12.364;2023-03-31T08:03:46;20017.09;;;-141.84;67.28
15260;BME280;34462;51.368;12.364;2023-03-31T08:06:18;20065.84;;;-141.84;66.72
15260;BME280;34462;51.368;12.364;2023-03-31T08:08:46;20008.94;;;-141.84;66.75
15260;BME280;34462;51.368;12.364;2023-03-31T08:11:17;20082.13;;;-141.84;66.14
15260;BME280;34462;51.368;12.364;2023-03-31T08:13:47;20071.97;;;-141.84;65.60
15260;BME280;34462;51.368;12.364;2023-03-31T08:16:16;20102.44;;;-141.84;65.09
15260;BME280;34462;51.368;12.364;2023-03-31T08:18:44;20106.50;;;-141.84;64.83
15260;BME280;34462;51.368;12.364;2023-03-31T08:21:12;20130.91;;;-141.84;64.30
15260;BME280;34462;51.368;12.364;2023-03-31T08:23:40;20132.94;;;-141.84;63.96
15260;BME280;34462;51.368;12.364;2023-03-31T08:26:12;20191.88;;;-141.84;63.24
15260;BME280;34462;51.368;12.364;2023-03-31T08:28:45;20191.88;;;-141.84;62.41
15260;BME280;34462;51.368;12.364;2023-03-31T08:31:15;20204.06;;;-141.84;62.37
15260;BME280;34462;51.368;12.364;2023-03-31T08:33:44;20193.91;;;-141.84;61.74
15260;BME280;34462;51.368;12.364;2023-03-31T08:36:13;20220.34;;;-141.84;62.30
15260;BME280;34462;51.368;12.364;2023-03-31T08:38:42;20267.09;;;-141.84;61.24
15260;BME280;34462;51.368;12.364;2023-03-31T08:41:43;20216.25;;;-141.84;61.53
15260;BME280;34462;51.368;12.364;2023-03-31T08:44:20;20120.75;;;-141.84;64.22
15260;BME280;34462;51.368;12.364;2023-03-31T08:46:52;20047.56;;;-141.84;66.46
15260;BME280;34462;51.368;12.364;2023-03-31T08:49:23;19988.63;;;-141.84;68.83
15260;BME280;34462;51.368;12.364;2023-03-31T08:51:58;20010.97;;;-141.84;70.08
15260;BME280;34462;51.368;12.364;2023-03-31T08:54:33;19931.72;;;-141.84;71.22
15260;BME280;34462;51.368;12.364;2023-03-31T08:57:09;19911.41;;;-141.84;72.91
15260;BME280;34462;51.368;12.364;2023-03-31T08:59:40;19893.09;;;-141.84;73.85
15260;BME280;34462;51.368;12.364;2023-03-31T09:02:20;19878.88;;;-141.84;74.67
15260;BME280;34462;51.368;12.364;2023-03-31T09:05:33;19917.50;;;-141.84;74.80
15260;BME280;34462;51.368;12.364;2023-03-31T09:08:34;19868.72;;;-141.84;75.38
15260;BME280;34462;51.368;12.364;2023-03-31T09:11:12;19895.13;;;-141.84;75.97
15260;BME280;34462;51.368;12.364;2023-03-31T09:14:17;19978.47;;;-141.84;75.09
15260;BME280;34462;51.368;12.364;2023-03-31T09:17:02;19943.91;;;-141.84;75.68
15260;BME280;34462;51.368;12.364;2023-03-31T09:19:37;19911.41;;;-141.84;74.37
15260;BME280;34462;51.368;12.364;2023-03-31T09:22:15;19939.84;;;-141.84;74.72
15260;BME280;34462;51.368;12.364;2023-03-31T09:24:53;19907.31;;;-141.84;75.05
15260;BME280;34462;51.368;12.364;2023-03-31T09:27:26;19880.91;;;-141.84;76.09
15260;BME280;34462;51.368;12.364;2023-03-31T09:30:01;19911.41;;;-141.84;75.78
15260;BME280;34462;51.368;12.364;2023-03-31T09:32:37;19903.25;;;-141.84;75.43
15260;BME280;34462;51.368;12.364;2023-03-31T09:35:16;19919.53;;;-141.84;74.88
15260;BME280;34462;51.368;12.364;2023-03-31T09:37:48;19935.78;;;-141.84;75.23
15260;BME280;34462;51.368;12.364;2023-03-31T09:40:20;19931.72;;;-141.84;74.51
15260;BME280;34462;51.368;12.364;2023-03-31T09:42:55;19909.34;;;-141.84;74.94
15260;BME280;34462;51.368;12.364;2023-03-31T09:45:25;19913.44;;;-141.84;75.23
15260;BME280;34462;51.368;12.364;2023-03-31T09:47:58;19911.41;;;-141.84;75.47
15260;BME280;34462;51.368;12.364;2023-03-31T09:50:29;19899.19;;;-141.84;75.78
15260;BME280;34462;51.368;12.364;2023-03-31T09:53:04;19868.72;;;-141.84;76.91
15260;BME280;34462;51.368;12.364;2023-03-31T09:55:44;19909.34;;;-141.84;76.54
15260;BME280;34462;51.368;12.364;2023-03-31T09:58:15;19884.97;;;-141.84;76.65
15260;BME280;34462;51.368;12.364;2023-03-31T10:00:58;19862.63;;;-141.84;76.66
15260;BME280;34462;51.368;12.364;2023-03-31T10:03:29;19834.16;;;-141.84;77.79
15260;BME280;34462;51.368;12.364;2023-03-31T10:06:08;19862.63;;;-141.84;77.24
15260;BME280;34462;51.368;12.364;2023-03-31T10:08:40;19838.22;;;-141.84;77.95
15260;BME280;34462;51.368;12.364;2023-03-31T10:11:11;19848.38;;;-141.84;77.11
15260;BME280;34462;51.368;12.364;2023-03-31T10:13:45;19819.94;;;-141.84;77.84
15260;BME280;34462;51.368;12.364;2023-03-31T10:16:22;19817.91;;;-141.84;78.22
15260;BME280;34462;51.368;12.364;2023-03-31T10:18:52;19797.59;;;-141.84;79.08
15260;BME280;34462;51.368;12.364;2023-03-31T10:21:23;19787.41;;;-141.84;78.59
15260;BME280;34462;51.368;12.364;2023-03-31T10:23:53;19783.34;;;-141.84;79.08
15260;BME280;34462;51.368;12.364;2023-03-31T10:26:25;19769.13;;;-141.84;79.70
15260;BME280;34462;51.368;12.364;2023-03-31T10:28:55;19730.50;;;-141.84;80.12
15260;BME280;34462;51.368;12.364;2023-03-31T10:31:26;19761.00;;;-141.84;79.89
15260;BME280;34462;51.368;12.364;2023-03-31T10:34:07;19779.28;;;-141.84;80.34
15260;BME280;34462;51.368;12.364;2023-03-31T10:36:44;19742.72;;;-141.84;80.68
15260;BME280;34462;51.368;12.364;2023-03-31T10:39:15;19777.25;;;-141.84;81.20
15260;BME280;34462;51.368;12.364;2023-03-31T10:41:49;19742.72;;;-141.84;81.86
15260;BME280;34462;51.368;12.364;2023-03-31T10:44:32;19704.09;;;-141.84;82.29
15260;BME280;34462;51.368;12.364;2023-03-31T10:47:17;19728.47;;;-141.84;81.55
15260;BME280;34462;51.368;12.364;2023-03-31T10:49:55;19716.28;;;-141.84;82.44
15260;BME280;34462;51.368;12.364;2023-03-31T10:52:26;19691.91;;;-141.84;82.71
15260;BME280;34462;51.368;12.364;2023-03-31T10:54:58;19716.28;;;-141.84;83.00
15260;BME280;34462;51.368;12.364;2023-03-31T10:57:40;19693.94;;;-141.84;83.34
15260;BME280;34462;51.368;12.364;2023-03-31T11:00:23;19673.59;;;-141.84;83.23
15260;BME280;34462;51.368;12.364;2023-03-31T11:06:19;19712.22;;;-141.84;83.37
15260;BME280;34462;51.368;12.364;2023-03-31T11:09:03;19716.28;;;-141.84;84.21
15260;BME280;34462;51.368;12.364;2023-03-31T11:11:56;19693.94;;;-141.84;85.14
15260;BME280;34462;51.368;12.364;2023-03-31T11:14:39;19708.16;;;-141.84;85.20
15260;BME280;34462;51.368;12.364;2023-03-31T11:17:23;19704.09;;;-141.84;84.05
15260;BME280;34462;51.368;12.364;2023-03-31T11:20:09;19700.03;;;-141.84;84.39
15260;BME280;34462;51.368;12.364;2023-03-31T11:22:50;19716.28;;;-141.84;83.97
15260;BME280;34462;51.368;12.364;2023-03-31T11:25:31;19685.81;;;-141.84;84.64
15260;BME280;34462;51.368;12.364;2023-03-31T11:28:21;19687.84;;;-141.84;85.66
15260;BME280;34462;51.368;12.364;2023-03-31T11:31:06;19722.38;;;-141.84;84.39
15260;BME280;34462;51.368;12.364;2023-03-31T11:34:13;19667.50;;;-141.84;85.67
15260;BME280;34462;51.368;12.364;2023-03-31T11:37:41;19695.97;;;-141.84;84.88
15260;BME280;34462;51.368;12.364;2023-03-31T11:40:39;19661.41;;;-141.84;84.55
15260;BME280;34462;51.368;12.364;2023-03-31T11:43:23;19683.78;;;-141.84;85.10
15260;BME280;34462;51.368;12.364;2023-03-31T11:46:00;19673.59;;;-141.84;85.17
15260;BME280;34462;51.368;12.364;2023-03-31T11:48:40;19653.28;;;-141.84;86.10
15260;BME280;34462;51.368;12.364;2023-03-31T11:51:19;19708.16;;;-141.84;86.15
15260;BME280;34462;51.368;12.364;2023-03-31T11:53:52;19651.25;;;-141.84;85.60
15260;BME280;34462;51.368;12.364;2023-03-31T11:56:24;19651.25;;;-141.84;84.83
15260;BME280;34462;51.368;12.364;2023-03-31T11:58:59;19647.19;;;-141.84;85.66
15260;BME280;34462;51.368;12.364;2023-03-31T12:01:41;19651.25;;;-141.84;85.79
15260;BME280;34462;51.368;12.364;2023-03-31T12:04:22;19659.38;;;-141.84;85.80
15260;BME280;34462;51.368;12.364;2023-03-31T12:07:02;19635.00;;;-141.84;84.97
15260;BME280;34462;51.368;12.364;2023-03-31T12:09:42;19641.09;;;-141.84;85.98
15260;BME280;34462;51.368;12.364;2023-03-31T12:12:19;19639.06;;;-141.84;86.25
15260;BME280;34462;51.368;12.364;2023-03-31T12:14:56;19673.59;;;-141.84;86.22
15260;BME280;34462;51.368;12.364;2023-03-31T12:17:28;19635.00;;;-141.84;84.87
15260;BME280;34462;51.368;12.364;2023-03-31T12:19:59;19669.53;;;-141.84;85.43
15260;BME280;34462;51.368;12.364;2023-03-31T12:22:39;19687.84;;;-141.84;84.79
15260;BME280;34462;51.368;12.364;2023-03-31T12:25:15;19679.72;;;-141.84;84.68
15260;BME280;34462;51.368;12.364;2023-03-31T12:27:45;19728.47;;;-141.84;83.24
15260;BME280;34462;51.368;12.364;2023-03-31T12:30:31;19712.22;;;-141.84;83.52
15260;BME280;34462;51.368;12.364;2023-03-31T12:33:12;19714.25;;;-141.84;83.37
15260;BME280;34462;51.368;12.364;2023-03-31T12:36:00;19758.97;;;-141.84;82.48
15260;BME280;34462;51.368;12.364;2023-03-31T12:38:47;19752.88;;;-141.84;82.35
15260;BME280;34462;51.368;12.364;2023-03-31T12:41:27;19748.81;;;-141.84;80.99
15260;BME280;34462;51.368;12.364;2023-03-31T12:44:28;19799.63;;;-141.84;80.16
15260;BME280;34462;51.368;12.364;2023-03-31T12:47:30;19771.16;;;-141.84;81.22
15260;BME280;34462;51.368;12.364;2023-03-31T12:50:22;19769.13;;;-141.84;79.35
15260;BME280;34462;51.368;12.364;2023-03-31T12:53:01;19789.44;;;-141.84;80.14
15260;BME280;34462;51.368;12.364;2023-03-31T12:55:42;19761.00;;;-141.84;81.03
15260;BME280;34462;51.368;12.364;2023-03-31T12:58:42;19801.66;;;-141.84;80.72
15260;BME280;34462;51.368;12.364;2023-03-31T13:01:14;19836.19;;;-141.84;79.61
15260;BME280;34462;51.368;12.364;2023-03-31T13:04:07;19897.16;;;-141.84;78.16
15260;BME280;34462;51.368;12.364;2023-03-31T13:06:55;19958.13;;;-141.84;76.15
15260;BME280;34462;51.368;12.364;2023-03-31T13:09:47;20102.44;;;-141.84;72.75
15260;BME280;34462;51.368;12.364;2023-03-31T13:12:21;20128.88;;;-141.84;70.58
15260;BME280;34462;51.368;12.364;2023-03-31T13:14:54;20137.00;;;-141.84;68.31
15260;BME280;34462;51.368;12.364;2023-03-31T13:17:30;20141.06;;;-141.84;67.36
15260;BME280;34462;51.368;12.364;2023-03-31T13:20:25;20153.25;;;-141.84;68.89